createdAt,value
2023-04-02T00:01:01.648Z,36.90
2023-04-02T00:03:41.553Z,36.80
2023-04-02T00:06:29.557Z,36.90
2023-04-02T00:09:03.816Z,36.90
2023-04-02T00:11:34.518Z,36.90
2023-04-02T00:14:07.258Z,36.80
2023-04-02T00:16:33.391Z,36.80
2023-04-02T00:19:05.548Z,36.90
2023-04-02T00:21:38.756Z,36.80
2023-04-02T00:24:18.676Z,36.80
2023-04-02T00:26:47.049Z,36.80
2023-04-02T00:29:15.476Z,36.90
2023-04-02T00:31:48.312Z,36.80
2023-04-02T00:34:36.583Z,36.80
2023-04-02T00:37:03.832Z,37.50
2023-04-02T00:39:33.889Z,36.80
2023-04-02T00:42:06.089Z,36.80
2023-04-02T00:44:42.118Z,36.80
2023-04-02T00:47:24.006Z,36.80
2023-04-02T00:49:57.067Z,36.80
2023-04-02T00:52:27.760Z,36.80
2023-04-02T00:55:04.902Z,36.80
2023-04-02T00:57:32.877Z,36.80
2023-04-02T01:00:10.180Z,36.80
2023-04-02T01:02:37.767Z,36.80
2023-04-02T01:05:22.307Z,36.80
2023-04-02T01:08:13.448Z,36.80
2023-04-02T01:11:03.556Z,36.80
2023-04-02T01:13:45.474Z,36.80
2023-04-02T01:16:17.655Z,36.80
2023-04-02T01:19:13.042Z,36.80
2023-04-02T01:21:52.155Z,36.80
2023-04-02T01:24:19.994Z,36.80
2023-04-02T01:26:56.917Z,36.80
2023-04-02T01:29:30.547Z,36.80
2023-04-02T01:32:04.795Z,36.90
2023-04-02T01:34:31.507Z,36.80
2023-04-02T01:37:24.079Z,36.80
2023-04-02T01:40:20.836Z,36.80
2023-04-02T01:42:49.932Z,36.80
2023-04-02T01:45:19.414Z,36.80
2023-04-02T01:47:45.671Z,36.80
2023-04-02T01:50:20.389Z,36.80
2023-04-02T01:52:53.281Z,36.80
2023-04-02T01:55:29.769Z,36.80
2023-04-02T01:57:56.998Z,36.80
2023-04-02T02:00:23.831Z,36.80
2023-04-02T02:02:51.090Z,36.80
2023-04-02T02:05:20.539Z,36.80
2023-04-02T02:07:46.928Z,36.80
2023-04-02T02:10:32.285Z,36.80
2023-04-02T02:12:59.732Z,36.80
2023-04-02T02:15:26.594Z,36.80
2023-04-02T02:18:03.519Z,36.80
2023-04-02T02:20:31.163Z,36.80
2023-04-02T02:22:58.081Z,36.80
2023-04-02T02:25:28.006Z,36.80
2023-04-02T02:28:10.236Z,36.80
2023-04-02T02:30:47.384Z,36.80
2023-04-02T02:33:29.973Z,36.80
2023-04-02T02:36:15.048Z,36.80
2023-04-02T02:39:11.993Z,36.70
2023-04-02T02:42:03.650Z,36.70
2023-04-02T02:44:34.268Z,36.60
2023-04-02T02:47:15.743Z,36.60
2023-04-02T02:49:45.354Z,36.50
2023-04-02T02:52:24.710Z,36.50
2023-04-02T02:55:08.312Z,36.50
2023-04-02T02:57:42.404Z,36.40
2023-04-02T03:00:11.094Z,36.40
2023-04-02T03:02:40.594Z,36.30
2023-04-02T03:05:07.963Z,36.40
2023-04-02T03:07:34.422Z,36.30
2023-04-02T03:10:10.039Z,36.20
2023-04-02T03:12:48.345Z,36.20
2023-04-02T03:15:36.038Z,36.10
2023-04-02T03:18:29.073Z,36.10
2023-04-02T03:20:57.944Z,36.10
2023-04-02T03:23:31.959Z,36.00
2023-04-02T03:26:07.522Z,36.00
2023-04-02T03:28:39.978Z,35.90
2023-04-02T03:31:17.459Z,35.90
2023-04-02T03:33:49.077Z,35.90
2023-04-02T03:36:19.572Z,35.80
2023-04-02T03:38:51.778Z,35.80
2023-04-02T03:41:31.157Z,35.70
2023-04-02T03:44:02.125Z,35.70
2023-04-02T03:46:37.395Z,35.70
2023-04-02T03:49:10.860Z,35.60
2023-04-02T03:51:41.325Z,36.20
2023-04-02T03:54:13.030Z,35.50
2023-04-02T03:56:39.200Z,35.40
2023-04-02T03:59:17.785Z,35.40
2023-04-02T04:02:05.607Z,35.40
2023-04-02T04:04:33.346Z,35.30
2023-04-02T04:07:01.245Z,35.30
2023-04-02T04:09:34.749Z,35.30
2023-04-02T04:12:25.931Z,35.20
2023-04-02T04:15:17.996Z,35.20
2023-04-02T04:18:18.688Z,35.10
2023-04-02T04:20:58.513Z,35.00
2023-04-02T04:23:35.229Z,35.00
2023-04-02T04:26:18.987Z,35.00
2023-04-02T04:29:29.912Z,35.00
2023-04-02T04:32:07.889Z,35.00
2023-04-02T04:34:46.202Z,34.80
2023-04-02T04:37:24.697Z,34.90
2023-04-02T04:39:57.068Z,34.80
2023-04-02T04:42:27.904Z,34.70
2023-04-02T04:45:03.066Z,35.40
2023-04-02T04:47:34.944Z,34.80
2023-04-02T04:50:10.947Z,34.70
2023-04-02T04:52:39.714Z,34.60
2023-04-02T04:55:47.106Z,34.60
2023-04-02T04:58:30.843Z,34.60
2023-04-02T05:01:38.077Z,34.50
2023-04-02T05:04:21.297Z,34.50
2023-04-02T05:06:53.360Z,34.50
2023-04-02T05:09:29.803Z,34.40
2023-04-02T05:12:07.457Z,34.40
2023-04-02T05:14:43.107Z,34.40
2023-04-02T05:17:22.934Z,34.30
2023-04-02T05:20:15.587Z,34.20
2023-04-02T05:22:57.402Z,34.30
2023-04-02T05:25:28.328Z,34.20
2023-04-02T05:28:18.150Z,34.20
2023-04-02T05:30:48.605Z,34.20
2023-04-02T05:33:22.699Z,34.10
2023-04-02T05:35:55.345Z,34.10
2023-04-02T05:38:25.225Z,34.10
2023-04-02T05:40:59.607Z,34.10
2023-04-02T05:43:27.733Z,34.10
2023-04-02T05:45:56.165Z,34.10
2023-04-02T05:48:37.083Z,34.10
2023-04-02T05:51:07.505Z,34.10
2023-04-02T05:53:36.936Z,34.10
2023-04-02T05:56:08.248Z,34.10
2023-04-02T05:58:42.005Z,34.10
2023-04-02T06:01:32.937Z,34.10
2023-04-02T06:04:19.245Z,34.20
2023-04-02T06:07:08.009Z,34.10
2023-04-02T06:09:49.850Z,34.10
2023-04-02T06:12:30.648Z,34.20
2023-04-02T06:14:57.275Z,34.20
2023-04-02T06:17:23.419Z,34.20
2023-04-02T06:19:51.056Z,34.20
2023-04-02T06:22:32.119Z,34.20
2023-04-02T06:25:24.061Z,34.10
2023-04-02T06:27:52.040Z,34.20
2023-04-02T06:30:29.525Z,34.20
2023-04-02T06:32:55.828Z,34.20
2023-04-02T06:35:22.070Z,34.20
2023-04-02T06:37:52.426Z,34.20
2023-04-02T06:40:36.183Z,34.20
2023-04-02T06:43:26.307Z,34.20
2023-04-02T06:45:56.638Z,34.20
2023-04-02T06:48:24.686Z,34.20
2023-04-02T06:51:02.061Z,34.30
2023-04-02T06:53:37.053Z,34.30
2023-04-02T06:56:25.126Z,34.30
2023-04-02T06:58:51.218Z,34.20
2023-04-02T07:01:25.026Z,34.20
2023-04-02T07:03:51.400Z,34.20
2023-04-02T07:06:20.146Z,34.30
2023-04-02T07:08:46.499Z,34.20
2023-04-02T07:11:21.119Z,34.20
2023-04-02T07:13:48.651Z,34.20
2023-04-02T07:16:18.378Z,34.30
2023-04-02T07:18:49.952Z,34.30
2023-04-02T07:21:15.993Z,34.30
2023-04-02T07:23:42.772Z,34.30
2023-04-02T07:26:13.636Z,34.20
2023-04-02T07:28:39.804Z,34.20
2023-04-02T07:31:19.312Z,34.30
2023-04-02T07:33:45.690Z,34.30
2023-04-02T07:36:16.981Z,34.40
2023-04-02T07:38:43.680Z,34.30
2023-04-02T07:41:10.071Z,34.30
2023-04-02T07:43:36.934Z,34.30
2023-04-02T07:46:04.242Z,34.30
2023-04-02T07:48:31.154Z,34.30
2023-04-02T07:50:57.663Z,34.30
2023-04-02T07:53:33.048Z,34.20
2023-04-02T07:56:00.814Z,34.30
2023-04-02T07:58:27.844Z,34.30
2023-04-02T08:00:54.015Z,34.30
2023-04-02T08:03:21.238Z,34.30
2023-04-02T08:05:56.153Z,34.20
2023-04-02T08:08:23.953Z,34.20
2023-04-02T08:10:50.436Z,34.30
2023-04-02T08:13:17.996Z,34.30
2023-04-02T08:15:44.067Z,34.30
2023-04-02T08:18:10.734Z,34.30
2023-04-02T08:20:37.486Z,34.30
2023-04-02T08:23:04.289Z,34.30
2023-04-02T08:25:30.743Z,34.30
2023-04-02T08:27:56.879Z,34.30
2023-04-02T08:30:22.989Z,34.30
2023-04-02T08:32:49.051Z,34.30
2023-04-02T08:35:16.215Z,34.30
2023-04-02T08:37:42.812Z,34.30
2023-04-02T08:40:38.451Z,34.30
2023-04-02T08:43:32.329Z,34.30
2023-04-02T08:46:19.142Z,34.30
2023-04-02T08:48:54.666Z,34.30
2023-04-02T08:51:27.249Z,34.30
2023-04-02T08:53:56.275Z,34.30
2023-04-02T08:56:48.687Z,34.30
2023-04-02T08:59:47.789Z,34.50
2023-04-02T09:02:30.990Z,34.30
2023-04-02T09:05:00.730Z,34.30
2023-04-02T09:07:27.853Z,34.30
2023-04-02T09:09:54.374Z,34.30
2023-04-02T09:12:32.770Z,34.30
2023-04-02T09:15:09.946Z,34.40
2023-04-02T09:17:50.566Z,34.30
2023-04-02T09:20:23.347Z,34.30
2023-04-02T09:22:52.427Z,34.30
2023-04-02T09:25:21.829Z,34.30
2023-04-02T09:27:53.862Z,34.30
2023-04-02T09:30:19.919Z,34.30
2023-04-02T09:32:51.145Z,34.30
2023-04-02T09:35:26.158Z,34.40
2023-04-02T09:38:18.626Z,34.40
2023-04-02T09:40:49.079Z,34.30
2023-04-02T09:43:18.046Z,34.40
2023-04-02T09:46:05.174Z,34.30
2023-04-02T09:48:52.983Z,34.30
2023-04-02T09:51:21.443Z,34.30
2023-04-02T09:53:50.659Z,34.40
2023-04-02T09:56:18.706Z,34.30
2023-04-02T09:59:00.754Z,34.30
2023-04-02T10:01:43.983Z,34.40
2023-04-02T10:04:48.918Z,34.30
2023-04-02T10:07:42.804Z,34.70
2023-04-02T10:10:34.331Z,34.40
2023-04-02T10:13:21.159Z,34.30
2023-04-02T10:15:50.488Z,34.40
2023-04-02T10:18:48.040Z,34.30
2023-04-02T10:21:26.269Z,34.40
2023-04-02T10:23:53.918Z,34.30
2023-04-02T10:26:42.784Z,34.30
2023-04-02T10:29:42.275Z,34.40
2023-04-02T10:32:13.376Z,34.40
2023-04-02T10:34:50.136Z,34.40
2023-04-02T10:37:25.907Z,34.30
2023-04-02T10:40:09.296Z,34.30
2023-04-02T10:42:38.148Z,34.40
2023-04-02T10:45:21.706Z,34.30
2023-04-02T10:47:53.612Z,34.40
2023-04-02T10:50:54.795Z,34.40
2023-04-02T10:53:33.770Z,34.30
2023-04-02T10:56:04.892Z,34.30
2023-04-02T10:58:38.702Z,34.40
2023-04-02T11:01:12.777Z,34.40
2023-04-02T11:03:46.529Z,34.30
2023-04-02T11:06:28.459Z,34.40
2023-04-02T11:09:02.671Z,34.30
2023-04-02T11:11:43.611Z,34.40
2023-04-02T11:14:34.175Z,34.40
2023-04-02T11:17:02.706Z,34.30
2023-04-02T11:19:29.661Z,34.40
2023-04-02T11:22:20.704Z,34.40
2023-04-02T11:24:51.835Z,34.40
2023-04-02T11:27:25.780Z,34.30
2023-04-02T11:30:11.048Z,34.40
2023-04-02T11:32:42.644Z,34.30
2023-04-02T11:35:30.010Z,34.40
2023-04-02T11:37:59.070Z,34.40
2023-04-02T11:40:46.413Z,34.40
2023-04-02T11:43:34.790Z,34.40
2023-04-02T11:46:29.897Z,34.30
2023-04-02T11:49:31.570Z,34.30
2023-04-02T11:52:09.020Z,34.30
2023-04-02T11:54:38.151Z,34.30
2023-04-02T11:57:27.637Z,34.30
2023-04-02T12:00:18.795Z,34.40
2023-04-02T12:03:13.076Z,34.30
2023-04-02T12:05:57.957Z,34.40
2023-04-02T12:08:50.659Z,34.40
2023-04-02T12:11:35.635Z,34.40
2023-04-02T12:14:26.363Z,34.40
2023-04-02T12:16:52.780Z,34.40
2023-04-02T12:19:19.109Z,34.40
2023-04-02T12:21:46.816Z,34.40
2023-04-02T12:24:21.670Z,34.40
2023-04-02T12:26:47.930Z,34.40
2023-04-02T12:29:25.987Z,34.40
2023-04-02T12:31:57.087Z,34.40
2023-04-02T12:34:26.334Z,34.30
2023-04-02T12:37:02.336Z,34.30
2023-04-02T12:39:30.941Z,34.30
2023-04-02T12:41:57.173Z,34.30
2023-04-02T12:44:26.469Z,34.30
2023-04-02T12:46:53.785Z,34.30
2023-04-02T12:49:40.717Z,34.40
2023-04-02T12:52:18.950Z,34.40
2023-04-02T12:55:07.747Z,34.30
2023-04-02T12:57:37.613Z,35.00
2023-04-02T13:00:26.820Z,34.40
2023-04-02T13:03:12.239Z,34.40
2023-04-02T13:05:43.624Z,34.40
2023-04-02T13:08:40.081Z,34.30
2023-04-02T13:11:06.545Z,34.40
2023-04-02T13:13:35.863Z,34.40
2023-04-02T13:16:17.332Z,34.40
2023-04-02T13:18:46.028Z,34.40
2023-04-02T13:21:28.133Z,34.40
2023-04-02T13:23:55.005Z,34.40
2023-04-02T13:26:26.447Z,34.40
2023-04-02T13:29:00.459Z,34.40
2023-04-02T13:31:30.829Z,34.40
2023-04-02T13:33:57.878Z,34.40
2023-04-02T13:36:24.276Z,34.30
2023-04-02T13:38:50.433Z,34.30
2023-04-02T13:41:28.175Z,34.30
2023-04-02T13:43:55.978Z,34.30
2023-04-02T13:46:25.669Z,34.40
2023-04-02T13:48:53.775Z,34.30
2023-04-02T13:51:44.157Z,34.40
2023-04-02T13:54:17.617Z,34.40
2023-04-02T13:56:43.992Z,34.40
2023-04-02T13:59:10.355Z,34.30
2023-04-02T14:01:36.891Z,34.40
2023-04-02T14:04:03.364Z,34.40
2023-04-02T14:06:29.380Z,34.40
2023-04-02T14:09:04.325Z,35.10
2023-04-02T14:11:45.534Z,34.40
2023-04-02T14:14:11.549Z,34.40
2023-04-02T14:17:04.128Z,34.40
2023-04-02T14:19:39.712Z,34.30
2023-04-02T14:22:19.641Z,34.40
2023-04-02T14:24:52.333Z,34.40
2023-04-02T14:27:40.580Z,34.40
2023-04-02T14:30:36.230Z,34.40
2023-04-02T14:33:21.308Z,34.30
2023-04-02T14:35:53.540Z,34.30
2023-04-02T14:38:33.042Z,34.40
2023-04-02T14:41:19.153Z,35.00
2023-04-02T14:43:53.053Z,34.40
2023-04-02T14:46:24.107Z,34.40
2023-04-02T14:48:57.648Z,34.40
2023-04-02T14:51:40.140Z,34.30
2023-04-02T14:54:32.668Z,34.40
2023-04-02T14:57:22.536Z,34.40
2023-04-02T14:59:57.963Z,34.30
2023-04-02T15:02:46.567Z,34.40
2023-04-02T15:05:27.818Z,34.40
2023-04-02T15:08:17.936Z,34.30
2023-04-02T15:11:09.692Z,35.00
2023-04-02T15:13:37.642Z,34.40
2023-04-02T15:16:11.490Z,34.40
2023-04-02T15:18:37.919Z,34.40
2023-04-02T15:21:19.043Z,34.40
2023-04-02T15:23:54.225Z,34.30
2023-04-02T15:26:35.355Z,34.30
2023-04-02T15:29:28.671Z,34.20
2023-04-02T15:32:07.462Z,34.20
2023-04-02T15:34:48.087Z,34.20
2023-04-02T15:37:39.026Z,34.20
2023-04-02T15:40:14.988Z,34.10
2023-04-02T15:42:51.655Z,34.00
2023-04-02T15:45:26.423Z,34.00
2023-04-02T15:48:01.475Z,33.90
2023-04-02T15:50:46.132Z,33.80
2023-04-02T15:53:33.489Z,33.80
2023-04-02T15:56:14.106Z,33.80
2023-04-02T15:58:59.946Z,33.80
2023-04-02T16:01:31.826Z,33.70
2023-04-02T16:04:26.013Z,33.70
2023-04-02T16:07:09.917Z,33.60
2023-04-02T16:10:10.996Z,33.50
2023-04-02T16:12:40.301Z,33.40
2023-04-02T16:15:26.443Z,33.40
2023-04-02T16:18:06.804Z,33.30
2023-04-02T16:20:40.006Z,33.90
2023-04-02T16:23:21.740Z,33.30
2023-04-02T16:25:55.748Z,33.20
2023-04-02T16:28:33.802Z,33.10
2023-04-02T16:31:37.064Z,33.10
2023-04-02T16:34:14.853Z,33.10
2023-04-02T16:36:52.877Z,32.90
2023-04-02T16:39:21.777Z,32.90
2023-04-02T16:42:08.194Z,32.90
2023-04-02T16:44:34.235Z,32.80
2023-04-02T16:47:23.969Z,32.80
2023-04-02T16:50:10.918Z,32.80
2023-04-02T16:52:51.524Z,32.70
2023-04-02T16:55:37.746Z,32.60
2023-04-02T16:58:38.030Z,32.60
2023-04-02T17:01:35.363Z,32.50
2023-04-02T17:04:30.518Z,32.50
2023-04-02T17:07:11.978Z,31.10
2023-04-02T17:09:49.711Z,31.30
2023-04-02T17:12:43.687Z,31.50
2023-04-02T17:15:37.077Z,31.70
2023-04-02T17:18:12.937Z,31.80
2023-04-02T17:20:39.636Z,31.80
2023-04-02T17:23:05.998Z,31.80
2023-04-02T17:25:36.559Z,31.90
2023-04-02T17:28:08.540Z,31.90
2023-04-02T17:30:39.786Z,31.90
2023-04-02T17:33:14.263Z,32.00
2023-04-02T17:36:10.991Z,32.00
2023-04-02T17:38:57.998Z,32.00
2023-04-02T17:41:47.763Z,32.00
2023-04-02T17:44:43.940Z,32.00
2023-04-02T17:47:34.404Z,32.00
2023-04-02T17:50:27.488Z,32.10
2023-04-02T17:53:14.843Z,32.10
2023-04-02T17:55:52.545Z,32.10
2023-04-02T17:58:37.296Z,32.10
2023-04-02T18:01:20.525Z,32.20
2023-04-02T18:04:01.613Z,32.20
2023-04-02T18:06:39.296Z,32.20
2023-04-02T18:09:32.801Z,32.10
2023-04-02T18:12:09.498Z,32.20
2023-04-02T18:15:00.153Z,32.20
2023-04-02T18:17:53.643Z,32.20
2023-04-02T18:20:33.604Z,32.30
2023-04-02T18:23:37.417Z,32.30
2023-04-02T18:26:32.149Z,32.30
2023-04-02T18:29:22.557Z,32.30
2023-04-02T18:31:52.502Z,32.30
2023-04-02T18:34:28.678Z,32.40
2023-04-02T18:37:16.339Z,32.30
2023-04-02T18:40:11.040Z,32.40
2023-04-02T18:42:46.134Z,32.40
2023-04-02T18:45:27.810Z,32.40
2023-04-02T18:48:09.087Z,32.40
2023-04-02T18:50:38.635Z,32.40
2023-04-02T18:53:12.550Z,32.40
2023-04-02T18:55:56.341Z,32.40
2023-04-02T18:58:30.838Z,32.40
2023-04-02T19:00:58.209Z,32.40
2023-04-02T19:03:36.947Z,32.40
2023-04-02T19:06:08.323Z,32.40
2023-04-02T19:08:47.157Z,32.40
2023-04-02T19:11:17.999Z,32.40
2023-04-02T19:13:48.296Z,32.40
2023-04-02T19:16:58.989Z,32.40
2023-04-02T19:19:27.159Z,32.40
2023-04-02T19:22:22.423Z,32.50
2023-04-02T19:25:07.596Z,32.50
2023-04-02T19:27:42.710Z,32.40
2023-04-02T19:30:28.874Z,32.50
2023-04-02T19:33:13.542Z,32.50
2023-04-02T19:35:54.997Z,32.50
2023-04-02T19:38:58.804Z,32.50
2023-04-02T19:41:35.603Z,32.50
2023-04-02T19:44:01.912Z,32.50
2023-04-02T19:46:28.186Z,32.50
2023-04-02T19:49:09.203Z,32.50
2023-04-02T19:51:35.446Z,32.50
2023-04-02T19:54:01.741Z,32.50
2023-04-02T19:56:27.832Z,32.50
2023-04-02T19:58:54.628Z,32.50
2023-04-02T20:01:21.756Z,32.50
2023-04-02T20:03:47.863Z,32.50
2023-04-02T20:06:14.168Z,32.50
2023-04-02T20:08:40.336Z,32.50
2023-04-02T20:11:06.726Z,32.50
2023-04-02T20:13:33.258Z,32.50
2023-04-02T20:16:00.944Z,32.50
2023-04-02T20:18:28.011Z,32.50
2023-04-02T20:20:54.360Z,32.60
2023-04-02T20:23:20.710Z,32.50
2023-04-02T20:25:53.281Z,32.50
2023-04-02T20:28:20.612Z,32.50
2023-04-02T20:30:49.258Z,32.50
2023-04-02T20:33:20.586Z,32.50
2023-04-02T20:35:48.972Z,32.50
2023-04-02T20:38:15.295Z,32.50
2023-04-02T20:40:42.736Z,32.60
2023-04-02T20:43:09.705Z,32.60
2023-04-02T20:45:36.638Z,32.50
2023-04-02T20:48:03.238Z,32.50
2023-04-02T20:50:29.647Z,32.50
2023-04-02T20:52:57.789Z,32.50
2023-04-02T20:55:23.881Z,32.60
2023-04-02T20:57:50.228Z,32.50
2023-04-02T21:00:17.067Z,33.20
2023-04-02T21:02:43.164Z,32.50
2023-04-02T21:05:09.388Z,32.50
2023-04-02T21:07:35.475Z,32.60
2023-04-02T21:10:01.560Z,32.50
2023-04-02T21:12:27.657Z,32.50
2023-04-02T21:14:57.155Z,32.60
2023-04-02T21:17:23.602Z,32.50
2023-04-02T21:19:49.651Z,32.50
2023-04-02T21:22:16.483Z,32.60
2023-04-02T21:24:42.579Z,32.50
2023-04-02T21:27:08.659Z,32.50
2023-04-02T21:29:35.400Z,32.50
2023-04-02T21:32:05.496Z,32.60
2023-04-02T21:34:37.295Z,32.60
2023-04-02T21:37:03.872Z,32.50
2023-04-02T21:39:30.092Z,32.60
2023-04-02T21:41:56.144Z,32.60
2023-04-02T21:44:23.082Z,32.50
2023-04-02T21:46:51.660Z,33.20
2023-04-02T21:49:21.819Z,32.60
2023-04-02T21:51:50.701Z,32.60
2023-04-02T21:54:17.010Z,32.60
2023-04-02T21:56:45.342Z,32.50
2023-04-02T21:59:13.360Z,32.60
2023-04-02T22:01:45.213Z,32.60
2023-04-02T22:04:17.039Z,32.50
2023-04-02T22:06:44.184Z,32.60
2023-04-02T22:09:15.898Z,32.50
2023-04-02T22:11:47.496Z,32.60
2023-04-02T22:14:16.875Z,32.60
2023-04-02T22:16:43.339Z,32.60
2023-04-02T22:19:13.061Z,32.60
2023-04-02T22:21:39.429Z,32.60
2023-04-02T22:24:08.590Z,32.60
2023-04-02T22:26:35.817Z,32.70
2023-04-02T22:29:03.320Z,32.70
2023-04-02T22:31:30.875Z,32.60
2023-04-02T22:33:57.709Z,32.60
2023-04-02T22:36:25.182Z,32.60
2023-04-02T22:38:51.993Z,32.60
2023-04-02T22:41:21.753Z,32.60
2023-04-02T22:43:48.407Z,32.70
2023-04-02T22:46:16.629Z,32.70
2023-04-02T22:48:43.719Z,32.50
2023-04-02T22:51:11.858Z,32.70
2023-04-02T22:53:39.292Z,32.70
2023-04-02T22:56:10.763Z,32.70
2023-04-02T22:58:37.382Z,32.70
2023-04-02T23:01:09.227Z,32.60
2023-04-02T23:03:35.386Z,32.70
2023-04-02T23:06:04.814Z,32.70
2023-04-02T23:08:30.863Z,32.70
2023-04-02T23:11:08.197Z,32.60
2023-04-02T23:13:35.566Z,32.60
2023-04-02T23:16:03.436Z,32.70
2023-04-02T23:18:32.073Z,32.70
2023-04-02T23:20:58.257Z,32.70
2023-04-02T23:23:25.432Z,32.60
2023-04-02T23:26:12.863Z,32.70
2023-04-02T23:28:39.988Z,32.70
2023-04-02T23:31:08.616Z,32.70
2023-04-02T23:33:34.927Z,32.70
2023-04-02T23:36:06.606Z,32.70
2023-04-02T23:38:32.684Z,32.70
2023-04-02T23:40:58.721Z,32.70
2023-04-02T23:43:24.775Z,32.70
2023-04-02T23:45:50.869Z,32.70
2023-04-02T23:48:16.979Z,32.70
2023-04-02T23:50:46.134Z,32.60
2023-04-02T23:53:12.887Z,32.70
2023-04-02T23:55:39.740Z,32.70
2023-04-02T23:58:05.844Z,32.70
